sensor_id;sensor_type;location;lat;lon;timestamp;pressure;altitude;pressure_sealevel;temperature;humidity
19795;BME280;10057;59.402;17.866;2023-07-31T00:01:37;100164.47;;;19.07;71.23
19795;BME280;10057;59.402;17.866;2023-07-31T00:04:04;100163.38;;;19.09;70.91
19795;BME280;10057;59.402;17.866;2023-07-31T00:06:31;100169.59;;;19.10;70.83
19795;BME280;10057;59.402;17.866;2023-07-31T00:08:57;100166.22;;;19.08;70.90
19795;BME280;10057;59.402;17.866;2023-07-31T00:11:24;100161.69;;;19.08;70.75
19795;BME280;10057;59.402;17.866;2023-07-31T00:13:53;100155.44;;;19.08;70.69
19795;BME280;10057;59.402;17.866;2023-07-31T00:16:20;100153.88;;;19.05;70.71
19795;BME280;10057;59.402;17.866;2023-07-31T00:18:47;100149.84;;;19.00;70.63
19795;BME280;10057;59.402;17.866;2023-07-31T00:21:14;100154.22;;;19.01;70.80
19795;BME280;10057;59.402;17.866;2023-07-31T00:23:41;100150.09;;;18.97;70.41
19795;BME280;10057;59.402;17.866;2023-07-31T00:26:07;100158.16;;;18.97;70.25
19795;BME280;10057;59.402;17.866;2023-07-31T00:28:34;100148.63;;;18.92;70.58
19795;BME280;10057;59.402;17.866;2023-07-31T00:31:01;100149.63;;;18.91;70.48
19795;BME280;10057;59.402;17.866;2023-07-31T00:33:31;100148.75;;;18.91;70.48
19795;BME280;10057;59.402;17.866;2023-07-31T00:35:58;100150.84;;;18.87;70.33
19795;BME280;10057;59.402;17.866;2023-07-31T00:38:24;100152.78;;;18.85;70.38
19795;BME280;10057;59.402;17.866;2023-07-31T00:40:51;100149.38;;;18.83;70.35
19795;BME280;10057;59.402;17.866;2023-07-31T00:43:18;100150.34;;;18.82;70.52
19795;BME280;10057;59.402;17.866;2023-07-31T00:45:45;100156.72;;;18.81;70.32
19795;BME280;10057;59.402;17.866;2023-07-31T00:48:12;100158.66;;;18.79;70.38
19795;BME280;10057;59.402;17.866;2023-07-31T00:50:39;100159.66;;;18.78;70.27
19795;BME280;10057;59.402;17.866;2023-07-31T00:53:06;100154.38;;;18.77;70.33
19795;BME280;10057;59.402;17.866;2023-07-31T00:55:33;100158.78;;;18.78;70.28
19795;BME280;10057;59.402;17.866;2023-07-31T00:58:00;100149.00;;;18.77;70.46
19795;BME280;10057;59.402;17.866;2023-07-31T01:00:26;100156.22;;;18.76;70.42
19795;BME280;10057;59.402;17.866;2023-07-31T01:02:53;100150.84;;;18.76;70.46
19795;BME280;10057;59.402;17.866;2023-07-31T01:05:27;100148.16;;;18.76;70.47
19795;BME280;10057;59.402;17.866;2023-07-31T01:10:40;100135.94;;;18.72;70.32
19795;BME280;10057;59.402;17.866;2023-07-31T01:13:09;100147.66;;;18.71;70.38
19795;BME280;10057;59.402;17.866;2023-07-31T01:15:36;100144.13;;;18.70;70.45
19795;BME280;10057;59.402;17.866;2023-07-31T01:18:03;100144.00;;;18.72;70.68
19795;BME280;10057;59.402;17.866;2023-07-31T01:20:30;100139.50;;;18.73;70.35
19795;BME280;10057;59.402;17.866;2023-07-31T01:28:58;100141.69;;;18.67;70.22
19795;BME280;10057;59.402;17.866;2023-07-31T01:31:29;100145.31;;;18.66;70.49
19795;BME280;10057;59.402;17.866;2023-07-31T01:34:00;100149.00;;;18.65;70.44
19795;BME280;10057;59.402;17.866;2023-07-31T01:36:28;100138.38;;;18.64;70.56
19795;BME280;10057;59.402;17.866;2023-07-31T01:39:00;100148.88;;;18.67;70.37
19795;BME280;10057;59.402;17.866;2023-07-31T01:41:27;100151.56;;;18.67;70.52
19795;BME280;10057;59.402;17.866;2023-07-31T01:43:54;100150.81;;;18.65;70.27
19795;BME280;10057;59.402;17.866;2023-07-31T01:46:21;100146.19;;;18.67;70.35
19795;BME280;10057;59.402;17.866;2023-07-31T01:48:48;100140.81;;;18.67;70.49
19795;BME280;10057;59.402;17.866;2023-07-31T01:51:14;100143.75;;;18.64;70.41
19795;BME280;10057;59.402;17.866;2023-07-31T01:53:41;100143.63;;;18.65;70.41
19795;BME280;10057;59.402;17.866;2023-07-31T01:56:08;100139.22;;;18.64;70.28
19795;BME280;10057;59.402;17.866;2023-07-31T01:58:34;100130.31;;;18.64;70.27
19795;BME280;10057;59.402;17.866;2023-07-31T02:01:01;100134.09;;;18.61;70.21
19795;BME280;10057;59.402;17.866;2023-07-31T02:03:28;100130.44;;;18.62;70.22
19795;BME280;10057;59.402;17.866;2023-07-31T02:05:55;100141.31;;;18.61;70.12
19795;BME280;10057;59.402;17.866;2023-07-31T02:08:23;100139.59;;;18.60;70.23
19795;BME280;10057;59.402;17.866;2023-07-31T02:10:51;100136.19;;;18.58;70.39
19795;BME280;10057;59.402;17.866;2023-07-31T02:13:18;100137.88;;;18.59;70.35
19795;BME280;10057;59.402;17.866;2023-07-31T02:15:45;100130.91;;;18.56;69.88
19795;BME280;10057;59.402;17.866;2023-07-31T02:18:12;100137.16;;;18.57;70.19
19795;BME280;10057;59.402;17.866;2023-07-31T02:20:39;100136.19;;;18.58;70.26
19795;BME280;10057;59.402;17.866;2023-07-31T02:23:05;100138.13;;;18.56;70.41
19795;BME280;10057;59.402;17.866;2023-07-31T02:25:32;100141.56;;;18.58;70.56
19795;BME280;10057;59.402;17.866;2023-07-31T02:27:59;100139.72;;;18.58;70.24
19795;BME280;10057;59.402;17.866;2023-07-31T02:30:25;100136.19;;;18.58;70.36
19795;BME280;10057;59.402;17.866;2023-07-31T02:32:52;100136.28;;;18.56;70.39
19795;BME280;10057;59.402;17.866;2023-07-31T02:35:19;100140.56;;;18.59;70.32
19795;BME280;10057;59.402;17.866;2023-07-31T02:37:46;100143.25;;;18.59;70.38
19795;BME280;10057;59.402;17.866;2023-07-31T02:40:13;100130.81;;;18.58;70.36
19795;BME280;10057;59.402;17.866;2023-07-31T02:42:40;100131.66;;;18.58;70.44
19795;BME280;10057;59.402;17.866;2023-07-31T02:45:07;100130.66;;;18.59;70.52
19795;BME280;10057;59.402;17.866;2023-07-31T02:47:34;100125.53;;;18.56;70.59
19795;BME280;10057;59.402;17.866;2023-07-31T02:50:05;100124.69;;;18.56;70.81
19795;BME280;10057;59.402;17.866;2023-07-31T02:52:32;100125.44;;;18.58;70.65
19795;BME280;10057;59.402;17.866;2023-07-31T02:54:58;100127.13;;;18.59;70.89
19795;BME280;10057;59.402;17.866;2023-07-31T02:57:25;100126.28;;;18.58;70.84
19795;BME280;10057;59.402;17.866;2023-07-31T02:59:52;100126.44;;;18.57;71.04
19795;BME280;10057;59.402;17.866;2023-07-31T03:02:19;100126.28;;;18.58;71.09
19795;BME280;10057;59.402;17.866;2023-07-31T03:04:46;100129.72;;;18.60;70.99
19795;BME280;10057;59.402;17.866;2023-07-31T03:07:12;100128.88;;;18.60;70.97
19795;BME280;10057;59.402;17.866;2023-07-31T03:09:39;100133.25;;;18.61;71.18
19795;BME280;10057;59.402;17.866;2023-07-31T03:12:06;100130.56;;;18.61;71.23
19795;BME280;10057;59.402;17.866;2023-07-31T03:14:33;100125.19;;;18.61;71.08
19795;BME280;10057;59.402;17.866;2023-07-31T03:17:00;100126.88;;;18.62;71.14
19795;BME280;10057;59.402;17.866;2023-07-31T03:19:30;100126.03;;;18.61;71.07
19795;BME280;10057;59.402;17.866;2023-07-31T03:21:57;100126.03;;;18.61;71.37
19795;BME280;10057;59.402;17.866;2023-07-31T03:24:24;100122.63;;;18.59;71.33
19795;BME280;10057;59.402;17.866;2023-07-31T03:26:51;100134.25;;;18.60;71.39
19795;BME280;10057;59.402;17.866;2023-07-31T03:29:18;100131.56;;;18.60;71.37
19795;BME280;10057;59.402;17.866;2023-07-31T03:31:47;100127.13;;;18.59;71.30
19795;BME280;10057;59.402;17.866;2023-07-31T03:34:13;100126.03;;;18.61;71.51
19795;BME280;10057;59.402;17.866;2023-07-31T03:36:40;100117.25;;;18.59;71.44
19795;BME280;10057;59.402;17.866;2023-07-31T03:39:07;100126.88;;;18.62;71.50
19795;BME280;10057;59.402;17.866;2023-07-31T03:41:34;100121.53;;;18.62;71.66
19795;BME280;10057;59.402;17.866;2023-07-31T03:44:01;100123.34;;;18.61;71.65
19795;BME280;10057;59.402;17.866;2023-07-31T03:46:27;100129.59;;;18.62;71.62
19795;BME280;10057;59.402;17.866;2023-07-31T03:48:54;100120.66;;;18.61;71.72
19795;BME280;10057;59.402;17.866;2023-07-31T03:51:21;100117.84;;;18.63;71.80
19795;BME280;10057;59.402;17.866;2023-07-31T03:53:48;100126.66;;;18.65;71.88
19795;BME280;10057;59.402;17.866;2023-07-31T03:56:15;100130.09;;;18.67;72.01
19795;BME280;10057;59.402;17.866;2023-07-31T03:58:41;100127.50;;;18.65;71.80
19795;BME280;10057;59.402;17.866;2023-07-31T04:01:08;100136.16;;;18.69;71.83
19795;BME280;10057;59.402;17.866;2023-07-31T04:03:35;100128.09;;;18.69;71.95
19795;BME280;10057;59.402;17.866;2023-07-31T04:06:02;100121.53;;;18.62;71.95
19795;BME280;10057;59.402;17.866;2023-07-31T04:08:29;100130.78;;;18.69;72.14
19795;BME280;10057;59.402;17.866;2023-07-31T04:10:56;100136.06;;;18.70;72.05
19795;BME280;10057;59.402;17.866;2023-07-31T04:13:23;100130.78;;;18.69;71.90
19795;BME280;10057;59.402;17.866;2023-07-31T04:15:50;100125.31;;;18.70;72.24
19795;BME280;10057;59.402;17.866;2023-07-31T04:18:22;100135.22;;;18.70;72.30
19795;BME280;10057;59.402;17.866;2023-07-31T04:20:48;100136.16;;;18.69;72.37
19795;BME280;10057;59.402;17.866;2023-07-31T04:23:15;100136.06;;;18.70;72.31
19795;BME280;10057;59.402;17.866;2023-07-31T04:25:42;100125.31;;;18.70;72.47
19795;BME280;10057;59.402;17.866;2023-07-31T04:28:09;100119.34;;;18.67;72.25
19795;BME280;10057;59.402;17.866;2023-07-31T04:30:37;100123.38;;;18.73;72.41
19795;BME280;10057;59.402;17.866;2023-07-31T04:33:04;100113.47;;;18.73;72.60
19795;BME280;10057;59.402;17.866;2023-07-31T04:35:33;100123.25;;;18.74;72.53
19795;BME280;10057;59.402;17.866;2023-07-31T04:38:01;100123.97;;;18.76;72.63
19795;BME280;10057;59.402;17.866;2023-07-31T04:40:28;100118.59;;;18.76;72.56
19795;BME280;10057;59.402;17.866;2023-07-31T04:42:55;100123.00;;;18.77;72.53
19795;BME280;10057;59.402;17.866;2023-07-31T04:45:22;100114.47;;;18.72;72.48
19795;BME280;10057;59.402;17.866;2023-07-31T04:47:48;100114.97;;;18.77;72.60
19795;BME280;10057;59.402;17.866;2023-07-31T04:50:15;100109.44;;;18.79;72.35
19795;BME280;10057;59.402;17.866;2023-07-31T04:52:43;100110.28;;;18.79;72.45
19795;BME280;10057;59.402;17.866;2023-07-31T04:55:10;100118.34;;;18.79;72.64
19795;BME280;10057;59.402;17.866;2023-07-31T04:57:37;100110.44;;;18.78;72.79
19795;BME280;10057;59.402;17.866;2023-07-31T05:00:04;100116.53;;;18.80;72.82
19795;BME280;10057;59.402;17.866;2023-07-31T05:02:31;100123.72;;;18.79;72.70
19795;BME280;10057;59.402;17.866;2023-07-31T05:04:57;100127.88;;;18.83;72.75
19795;BME280;10057;59.402;17.866;2023-07-31T05:07:24;100121.66;;;18.83;72.61
19795;BME280;10057;59.402;17.866;2023-07-31T05:09:51;100129.59;;;18.84;72.81
19795;BME280;10057;59.402;17.866;2023-07-31T05:12:18;100132.03;;;18.87;72.87
19795;BME280;10057;59.402;17.866;2023-07-31T05:14:44;100123.00;;;18.88;72.90
19795;BME280;10057;59.402;17.866;2023-07-31T05:17:11;100122.38;;;18.85;72.88
19795;BME280;10057;59.402;17.866;2023-07-31T05:19:38;100128.13;;;18.91;72.89
19795;BME280;10057;59.402;17.866;2023-07-31T05:22:05;100123.59;;;18.92;72.86
19795;BME280;10057;59.402;17.866;2023-07-31T05:24:32;100118.97;;;18.94;73.05
19795;BME280;10057;59.402;17.866;2023-07-31T05:26:58;100126.88;;;18.96;73.08
19795;BME280;10057;59.402;17.866;2023-07-31T05:29:25;100127.34;;;19.01;72.94
19795;BME280;10057;59.402;17.866;2023-07-31T05:31:52;100134.31;;;19.03;73.19
19795;BME280;10057;59.402;17.866;2023-07-31T05:34:19;100127.22;;;19.02;73.06
19795;BME280;10057;59.402;17.866;2023-07-31T05:36:45;100115.50;;;19.03;73.05
19795;BME280;10057;59.402;17.866;2023-07-31T05:39:12;100126.00;;;19.06;73.28
19795;BME280;10057;59.402;17.866;2023-07-31T05:41:39;100113.66;;;19.04;73.15
19795;BME280;10057;59.402;17.866;2023-07-31T05:44:06;100113.53;;;19.05;73.28
19795;BME280;10057;59.402;17.866;2023-07-31T05:46:32;100123.91;;;19.10;73.22
19795;BME280;10057;59.402;17.866;2023-07-31T05:48:59;100113.91;;;19.12;73.47
19795;BME280;10057;59.402;17.866;2023-07-31T05:51:27;100121.97;;;19.12;73.18
19795;BME280;10057;59.402;17.866;2023-07-31T05:53:54;100124.66;;;19.12;73.20
19795;BME280;10057;59.402;17.866;2023-07-31T05:56:21;100119.97;;;19.14;73.33
19795;BME280;10057;59.402;17.866;2023-07-31T05:58:48;100120.72;;;19.16;73.37
19795;BME280;10057;59.402;17.866;2023-07-31T06:01:17;100123.25;;;19.17;73.45
19795;BME280;10057;59.402;17.866;2023-07-31T06:03:44;100117.88;;;19.17;73.23
19795;BME280;10057;59.402;17.866;2023-07-31T06:06:11;100121.56;;;19.16;73.27
19795;BME280;10057;59.402;17.866;2023-07-31T06:08:38;100124.00;;;19.20;73.44
19795;BME280;10057;59.402;17.866;2023-07-31T06:11:05;100123.88;;;19.21;73.35
19795;BME280;10057;59.402;17.866;2023-07-31T06:13:32;100125.59;;;19.22;73.34
19795;BME280;10057;59.402;17.866;2023-07-31T06:15:59;100114.84;;;19.22;73.45
19795;BME280;10057;59.402;17.866;2023-07-31T06:18:26;100105.78;;;19.23;73.38
19795;BME280;10057;59.402;17.866;2023-07-31T06:20:53;100109.47;;;19.22;73.30
19795;BME280;10057;59.402;17.866;2023-07-31T06:23:20;100107.47;;;19.24;73.45
19795;BME280;10057;59.402;17.866;2023-07-31T06:25:47;100112.84;;;19.24;73.56
19795;BME280;10057;59.402;17.866;2023-07-31T06:28:14;100109.81;;;19.29;73.65
19795;BME280;10057;59.402;17.866;2023-07-31T06:30:47;100108.06;;;19.28;73.77
19795;BME280;10057;59.402;17.866;2023-07-31T06:33:14;100110.66;;;19.29;73.73
19795;BME280;10057;59.402;17.866;2023-07-31T06:35:41;100108.81;;;19.30;73.88
19795;BME280;10057;59.402;17.866;2023-07-31T06:38:08;100111.09;;;19.34;73.84
19795;BME280;10057;59.402;17.866;2023-07-31T06:40:34;100108.41;;;19.34;73.90
19795;BME280;10057;59.402;17.866;2023-07-31T06:43:01;100110.84;;;19.37;73.63
19795;BME280;10057;59.402;17.866;2023-07-31T06:45:35;100104.50;;;19.38;73.71
19795;BME280;10057;59.402;17.866;2023-07-31T06:48:03;100110.84;;;19.37;73.59
19795;BME280;10057;59.402;17.866;2023-07-31T06:50:31;100115.53;;;19.35;73.61
19795;BME280;10057;59.402;17.866;2023-07-31T06:52:58;100116.22;;;19.37;73.58
19795;BME280;10057;59.402;17.866;2023-07-31T06:55:26;100109.91;;;19.38;73.60
19795;BME280;10057;59.402;17.866;2023-07-31T06:57:54;100105.09;;;19.42;73.82
19795;BME280;10057;59.402;17.866;2023-07-31T07:00:22;100101.44;;;19.43;73.94
19795;BME280;10057;59.402;17.866;2023-07-31T07:02:49;100110.81;;;19.49;73.74
19795;BME280;10057;59.402;17.866;2023-07-31T07:05:17;100111.53;;;19.51;73.72
19795;BME280;10057;59.402;17.866;2023-07-31T07:07:45;100104.56;;;19.48;73.82
19795;BME280;10057;59.402;17.866;2023-07-31T07:10:12;100099.78;;;19.52;73.76
19795;BME280;10057;59.402;17.866;2023-07-31T07:12:38;100096.38;;;19.50;73.56
19795;BME280;10057;59.402;17.866;2023-07-31T07:15:06;100095.28;;;19.52;73.47
19795;BME280;10057;59.402;17.866;2023-07-31T07:17:32;100098.81;;;19.53;73.33
19795;BME280;10057;59.402;17.866;2023-07-31T07:20:00;100097.81;;;19.54;73.33
19795;BME280;10057;59.402;17.866;2023-07-31T07:22:27;100088.06;;;19.53;73.18
19795;BME280;10057;59.402;17.866;2023-07-31T07:24:54;100081.94;;;19.51;73.11
19795;BME280;10057;59.402;17.866;2023-07-31T07:27:21;100080.44;;;19.58;73.16
19795;BME280;10057;59.402;17.866;2023-07-31T07:29:50;100073.22;;;19.58;73.72
19795;BME280;10057;59.402;17.866;2023-07-31T07:32:18;100081.16;;;19.60;73.32
19795;BME280;10057;59.402;17.866;2023-07-31T07:34:45;100076.50;;;19.62;73.15
19795;BME280;10057;59.402;17.866;2023-07-31T07:37:17;100066.97;;;19.58;73.50
19795;BME280;10057;59.402;17.866;2023-07-31T07:40:09;100064.03;;;19.61;73.52
19795;BME280;10057;59.402;17.866;2023-07-31T07:42:58;100071.47;;;19.69;73.64
19795;BME280;10057;59.402;17.866;2023-07-31T07:45:26;100067.22;;;19.66;73.67
19795;BME280;10057;59.402;17.866;2023-07-31T07:47:53;100076.22;;;19.76;73.57
19795;BME280;10057;59.402;17.866;2023-07-31T07:50:21;100067.16;;;19.77;73.21
19795;BME280;10057;59.402;17.866;2023-07-31T07:52:48;100072.28;;;19.80;73.48
19795;BME280;10057;59.402;17.866;2023-07-31T07:55:15;100062.47;;;19.79;73.71
19795;BME280;10057;59.402;17.866;2023-07-31T07:58:02;100068.06;;;19.87;73.74
19795;BME280;10057;59.402;17.866;2023-07-31T08:00:29;100067.81;;;19.91;73.68
19795;BME280;10057;59.402;17.866;2023-07-31T08:02:56;100079.00;;;19.96;73.49
19795;BME280;10057;59.402;17.866;2023-07-31T08:05:25;100067.97;;;19.99;73.47
19795;BME280;10057;59.402;17.866;2023-07-31T08:07:51;100065.28;;;19.99;73.67
19795;BME280;10057;59.402;17.866;2023-07-31T08:10:18;100061.34;;;20.03;73.40
19795;BME280;10057;59.402;17.866;2023-07-31T08:12:45;100061.34;;;20.03;73.45
19795;BME280;10057;59.402;17.866;2023-07-31T08:15:11;100058.38;;;20.06;73.22
19795;BME280;10057;59.402;17.866;2023-07-31T08:17:39;100047.03;;;20.02;73.32
19795;BME280;10057;59.402;17.866;2023-07-31T08:20:08;100060.81;;;20.09;73.30
19795;BME280;10057;59.402;17.866;2023-07-31T08:22:35;100051.16;;;20.06;73.22
19795;BME280;10057;59.402;17.866;2023-07-31T08:25:02;100049.03;;;20.10;73.43
19795;BME280;10057;59.402;17.866;2023-07-31T08:27:29;100040.44;;;20.16;73.22
19795;BME280;10057;59.402;17.866;2023-07-31T08:29:56;100038.31;;;20.20;73.01
19795;BME280;10057;59.402;17.866;2023-07-31T08:32:23;100030.97;;;20.22;73.02
19795;BME280;10057;59.402;17.866;2023-07-31T08:34:50;100031.09;;;20.20;72.72
19795;BME280;10057;59.402;17.866;2023-07-31T08:37:16;100030.13;;;20.21;72.34
19795;BME280;10057;59.402;17.866;2023-07-31T08:39:43;100034.78;;;20.19;72.31
19795;BME280;10057;59.402;17.866;2023-07-31T08:42:10;100029.38;;;20.19;71.99
19795;BME280;10057;59.402;17.866;2023-07-31T08:44:37;100017.91;;;20.17;71.87
19795;BME280;10057;59.402;17.866;2023-07-31T08:47:05;100013.22;;;20.19;71.84
19795;BME280;10057;59.402;17.866;2023-07-31T08:49:33;100017.34;;;20.23;72.01
19795;BME280;10057;59.402;17.866;2023-07-31T08:52:01;100009.28;;;20.23;71.71
19795;BME280;10057;59.402;17.866;2023-07-31T08:54:29;100014.38;;;20.26;71.98
19795;BME280;10057;59.402;17.866;2023-07-31T08:56:57;100005.34;;;20.27;71.85
19795;BME280;10057;59.402;17.866;2023-07-31T08:59:31;100006.63;;;20.33;71.80
19795;BME280;10057;59.402;17.866;2023-07-31T09:02:07;99994.84;;;20.34;71.54
19795;BME280;10057;59.402;17.866;2023-07-31T09:04:35;100001.50;;;20.30;71.27
19795;BME280;10057;59.402;17.866;2023-07-31T09:07:03;100000.66;;;20.29;71.35
19795;BME280;10057;59.402;17.866;2023-07-31T09:09:31;99993.56;;;20.28;71.28
19795;BME280;10057;59.402;17.866;2023-07-31T09:11:58;99988.19;;;20.28;71.20
19795;BME280;10057;59.402;17.866;2023-07-31T09:14:26;99973.03;;;20.27;71.09
19795;BME280;10057;59.402;17.866;2023-07-31T09:16:57;99980.38;;;20.25;71.15
19795;BME280;10057;59.402;17.866;2023-07-31T09:21:53;99997.84;;;20.31;71.11
19795;BME280;10057;59.402;17.866;2023-07-31T09:24:31;99989.19;;;20.27;71.16
19795;BME280;10057;59.402;17.866;2023-07-31T09:26:59;99982.81;;;20.28;71.65
19795;BME280;10057;59.402;17.866;2023-07-31T09:29:27;99991.72;;;20.29;71.85
19795;BME280;10057;59.402;17.866;2023-07-31T09:31:55;99996.25;;;20.28;71.74
19795;BME280;10057;59.402;17.866;2023-07-31T09:34:29;99993.56;;;20.28;71.68
19795;BME280;10057;59.402;17.866;2023-07-31T09:36:58;99997.25;;;20.27;71.98
19795;BME280;10057;59.402;17.866;2023-07-31T09:39:27;100007.03;;;20.28;72.19
19795;BME280;10057;59.402;17.866;2023-07-31T09:41:56;100016.38;;;20.24;72.39
19795;BME280;10057;59.402;17.866;2023-07-31T09:44:41;100043.31;;;20.24;72.04
19795;BME280;10057;59.402;17.866;2023-07-31T09:47:23;100074.91;;;20.22;72.32
19795;BME280;10057;59.402;17.866;2023-07-31T09:49:54;100132.81;;;20.17;72.42
19795;BME280;10057;59.402;17.866;2023-07-31T09:52:21;100152.34;;;20.09;72.22
19795;BME280;10057;59.402;17.866;2023-07-31T09:55:08;100135.09;;;19.91;71.31
19795;BME280;10057;59.402;17.866;2023-07-31T09:58:19;100125.19;;;19.70;70.77
19795;BME280;10057;59.402;17.866;2023-07-31T10:00:48;100124.06;;;19.61;70.76
19795;BME280;10057;59.402;17.866;2023-07-31T10:03:22;100103.47;;;19.51;70.37
19795;BME280;10057;59.402;17.866;2023-07-31T10:05:50;100109.50;;;19.43;70.48
19795;BME280;10057;59.402;17.866;2023-07-31T10:08:19;100115.38;;;19.37;70.03
19795;BME280;10057;59.402;17.866;2023-07-31T10:10:49;100106.97;;;19.30;69.91
19795;BME280;10057;59.402;17.866;2023-07-31T10:13:17;100104.69;;;19.26;69.83
19795;BME280;10057;59.402;17.866;2023-07-31T10:15:45;100098.81;;;19.21;69.55
19795;BME280;10057;59.402;17.866;2023-07-31T10:18:12;100094.94;;;19.13;69.21
19795;BME280;10057;59.402;17.866;2023-07-31T10:20:40;100097.28;;;19.07;69.41
19795;BME280;10057;59.402;17.866;2023-07-31T10:23:07;100082.63;;;19.00;68.89
19795;BME280;10057;59.402;17.866;2023-07-31T10:25:35;100074.63;;;18.88;69.26
19795;BME280;10057;59.402;17.866;2023-07-31T10:28:02;100085.13;;;18.91;69.53
19795;BME280;10057;59.402;17.866;2023-07-31T10:30:31;100086.81;;;18.92;69.31
19795;BME280;10057;59.402;17.866;2023-07-31T10:32:59;100079.16;;;18.88;69.44
19795;BME280;10057;59.402;17.866;2023-07-31T10:35:27;100087.66;;;18.93;69.35
19795;BME280;10057;59.402;17.866;2023-07-31T10:37:54;100091.94;;;18.96;69.17
19795;BME280;10057;59.402;17.866;2023-07-31T10:40:27;100089.00;;;18.99;69.12
19795;BME280;10057;59.402;17.866;2023-07-31T10:42:55;100090.72;;;19.00;69.10
19795;BME280;10057;59.402;17.866;2023-07-31T10:45:41;100093.38;;;19.00;68.70
19795;BME280;10057;59.402;17.866;2023-07-31T10:48:15;100085.72;;;18.95;69.03
19795;BME280;10057;59.402;17.866;2023-07-31T10:50:55;100084.88;;;18.94;68.92
19795;BME280;10057;59.402;17.866;2023-07-31T10:53:32;100080.44;;;18.93;69.19
19795;BME280;10057;59.402;17.866;2023-07-31T10:56:06;100086.72;;;18.94;69.17
19795;BME280;10057;59.402;17.866;2023-07-31T10:58:34;100092.19;;;18.92;69.18
19795;BME280;10057;59.402;17.866;2023-07-31T11:01:05;100086.34;;;18.87;69.02
19795;BME280;10057;59.402;17.866;2023-07-31T11:03:47;100094.41;;;18.87;69.15
19795;BME280;10057;59.402;17.866;2023-07-31T11:06:16;100091.59;;;18.89;69.22
19795;BME280;10057;59.402;17.866;2023-07-31T11:08:49;100085.13;;;18.91;69.29
19795;BME280;10057;59.402;17.866;2023-07-31T11:11:18;100080.59;;;18.92;69.31
19795;BME280;10057;59.402;17.866;2023-07-31T11:13:50;100080.34;;;18.95;69.44
19795;BME280;10057;59.402;17.866;2023-07-31T11:16:27;100082.88;;;18.97;69.13
19795;BME280;10057;59.402;17.866;2023-07-31T11:18:54;100074.22;;;18.93;69.12
19795;BME280;10057;59.402;17.866;2023-07-31T11:21:24;100069.00;;;18.91;69.10
19795;BME280;10057;59.402;17.866;2023-07-31T11:23:53;100075.31;;;18.90;68.93
19795;BME280;10057;59.402;17.866;2023-07-31T11:26:20;100075.59;;;18.87;69.12
19795;BME280;10057;59.402;17.866;2023-07-31T11:28:49;100069.50;;;18.85;69.04
19795;BME280;10057;59.402;17.866;2023-07-31T11:31:17;100068.03;;;18.81;69.13
19795;BME280;10057;59.402;17.866;2023-07-31T11:33:45;100061.22;;;18.77;69.33
19795;BME280;10057;59.402;17.866;2023-07-31T11:36:18;100054.13;;;18.76;69.53
19795;BME280;10057;59.402;17.866;2023-07-31T11:38:46;100049.50;;;18.78;69.62
19795;BME280;10057;59.402;17.866;2023-07-31T11:41:16;100047.19;;;18.74;69.58
19795;BME280;10057;59.402;17.866;2023-07-31T11:43:45;100050.94;;;18.82;69.80
19795;BME280;10057;59.402;17.866;2023-07-31T11:46:13;100051.69;;;18.84;69.69
19795;BME280;10057;59.402;17.866;2023-07-31T11:48:42;100047.75;;;18.88;69.38
19795;BME280;10057;59.402;17.866;2023-07-31T11:51:10;100046.41;;;18.94;69.40
19795;BME280;10057;59.402;17.866;2023-07-31T11:53:54;100056.25;;;18.93;69.37
19795;BME280;10057;59.402;17.866;2023-07-31T11:56:23;100052.72;;;18.93;69.63
19795;BME280;10057;59.402;17.866;2023-07-31T11:58:57;100050.38;;;19.00;69.63
19795;BME280;10057;59.402;17.866;2023-07-31T12:01:27;100055.75;;;19.00;69.78
19795;BME280;10057;59.402;17.866;2023-07-31T12:03:54;100064.69;;;19.00;69.78
19795;BME280;10057;59.402;17.866;2023-07-31T12:06:42;100057.47;;;19.01;69.60
19795;BME280;10057;59.402;17.866;2023-07-31T12:09:24;100075.91;;;19.05;69.65
19795;BME280;10057;59.402;17.866;2023-07-31T12:11:53;100088.38;;;19.06;69.67
19795;BME280;10057;59.402;17.866;2023-07-31T12:14:27;100086.53;;;19.07;69.67
19795;BME280;10057;59.402;17.866;2023-07-31T12:16:59;100091.19;;;19.05;69.78
19795;BME280;10057;59.402;17.866;2023-07-31T12:19:29;100087.75;;;19.03;69.76
19795;BME280;10057;59.402;17.866;2023-07-31T12:21:59;100086.06;;;19.02;69.88
19795;BME280;10057;59.402;17.866;2023-07-31T12:24:26;100088.25;;;18.97;69.69
19795;BME280;10057;59.402;17.866;2023-07-31T12:26:53;100083.75;;;18.97;69.94
19795;BME280;10057;59.402;17.866;2023-07-31T12:29:21;100080.19;;;18.97;70.05
19795;BME280;10057;59.402;17.866;2023-07-31T12:31:48;100080.44;;;18.93;70.13
19795;BME280;10057;59.402;17.866;2023-07-31T12:34:17;100076.06;;;18.92;70.16
19795;BME280;10057;59.402;17.866;2023-07-31T12:36:44;100069.25;;;18.88;70.31
19795;BME280;10057;59.402;17.866;2023-07-31T12:39:12;100069.25;;;18.88;70.46
19795;BME280;10057;59.402;17.866;2023-07-31T12:41:39;100070.34;;;18.86;70.72
19795;BME280;10057;59.402;17.866;2023-07-31T12:44:06;100064.84;;;18.87;70.88
19795;BME280;10057;59.402;17.866;2023-07-31T12:46:33;100055.31;;;18.83;71.02
19795;BME280;10057;59.402;17.866;2023-07-31T12:49:00;100057.16;;;18.83;71.16
19795;BME280;10057;59.402;17.866;2023-07-31T12:51:26;100057.06;;;18.84;71.34
19795;BME280;10057;59.402;17.866;2023-07-31T12:53:53;100046.06;;;18.87;71.53
19795;BME280;10057;59.402;17.866;2023-07-31T12:56:20;100042.13;;;18.91;71.43
19795;BME280;10057;59.402;17.866;2023-07-31T12:58:47;100047.94;;;18.97;71.60